createdAt,value
2022-10-01T00:02:15.894Z,59.26
2022-10-01T00:04:46.511Z,59.24
2022-10-01T00:07:16.858Z,59.23
2022-10-01T00:09:46.993Z,59.63
2022-10-01T00:12:17.880Z,59.05
2022-10-01T00:14:47.934Z,59.12
2022-10-01T00:17:18.670Z,58.83
2022-10-01T00:19:48.697Z,58.93
2022-10-01T00:22:20.413Z,59.10
2022-10-01T00:24:51.147Z,58.92
2022-10-01T00:27:21.463Z,58.81
2022-10-01T00:29:51.475Z,58.92
2022-10-01T00:32:22.332Z,58.90
2022-10-01T00:34:53.553Z,58.96
2022-10-01T00:37:23.833Z,58.70
2022-10-01T00:39:54.114Z,58.82
2022-10-01T00:42:28.561Z,58.31
2022-10-01T00:45:00.397Z,58.43
2022-10-01T00:47:35.516Z,58.59
2022-10-01T00:50:08.918Z,58.17
2022-10-01T00:52:43.686Z,58.15
2022-10-01T00:55:22.615Z,57.93
2022-10-01T00:57:53.729Z,58.05
2022-10-01T01:00:24.801Z,58.00
2022-10-01T01:02:55.238Z,58.16
2022-10-01T01:05:26.367Z,58.24
2022-10-01T01:07:56.693Z,58.29
2022-10-01T01:10:50.774Z,57.89
2022-10-01T01:13:56.464Z,57.55
2022-10-01T01:16:39.537Z,57.90
2022-10-01T01:19:53.701Z,57.67
2022-10-01T01:22:28.922Z,58.00
2022-10-01T01:25:18.236Z,57.88
2022-10-01T01:27:55.250Z,58.18
2022-10-01T01:30:25.620Z,58.39
2022-10-01T01:33:07.318Z,58.00
2022-10-01T01:35:53.494Z,57.82
2022-10-01T01:38:30.695Z,57.96
2022-10-01T01:41:03.864Z,57.98
2022-10-01T01:43:38.126Z,57.88
2022-10-01T01:46:13.106Z,58.00
2022-10-01T01:48:49.260Z,57.77
2022-10-01T01:51:32.925Z,57.71
2022-10-01T01:54:04.160Z,58.18
2022-10-01T01:56:35.605Z,57.90
2022-10-01T01:59:06.798Z,58.23
2022-10-01T02:01:45.384Z,57.44
2022-10-01T02:04:21.340Z,57.34
2022-10-01T02:07:18.637Z,56.94
2022-10-01T02:10:10.010Z,56.91
2022-10-01T02:13:10.291Z,56.95
2022-10-01T02:15:56.539Z,57.31
2022-10-01T02:18:41.961Z,57.39
2022-10-01T02:21:21.757Z,57.18
2022-10-01T02:23:59.641Z,56.96
2022-10-01T02:26:33.251Z,57.09
2022-10-01T02:29:09.612Z,56.71
2022-10-01T02:31:40.370Z,56.77
2022-10-01T02:34:13.101Z,56.94
2022-10-01T02:36:46.628Z,57.12
2022-10-01T02:39:19.300Z,56.88
2022-10-01T02:41:52.727Z,57.05
2022-10-01T02:44:31.645Z,56.65
2022-10-01T02:47:46.334Z,56.33
2022-10-01T02:50:17.273Z,56.62
2022-10-01T02:52:53.477Z,56.61
2022-10-01T02:55:30.169Z,56.19
2022-10-01T02:58:00.477Z,56.06
2022-10-01T03:00:30.788Z,56.27
2022-10-01T03:03:00.830Z,56.57
2022-10-01T03:05:31.004Z,56.44
2022-10-01T03:08:01.212Z,56.16
2022-10-01T03:10:32.174Z,56.10
2022-10-01T03:13:03.204Z,56.33
2022-10-01T03:15:33.679Z,56.51
2022-10-01T03:18:04.509Z,55.83
2022-10-01T03:20:34.806Z,56.17
2022-10-01T03:23:04.910Z,56.11
2022-10-01T03:25:35.592Z,56.36
2022-10-01T03:28:06.202Z,55.91
2022-10-01T03:30:37.060Z,56.00
2022-10-01T03:33:07.411Z,56.21
2022-10-01T03:35:37.376Z,55.92
2022-10-01T03:38:09.538Z,56.05
2022-10-01T03:40:40.332Z,55.44
2022-10-01T03:43:10.828Z,55.22
2022-10-01T03:45:40.845Z,55.61
2022-10-01T03:48:11.157Z,55.75
2022-10-01T03:50:41.618Z,55.76
2022-10-01T03:53:11.964Z,55.57
2022-10-01T03:55:42.405Z,55.59
2022-10-01T03:58:13.717Z,55.76
2022-10-01T04:00:46.147Z,55.50
2022-10-01T04:03:17.760Z,55.18
2022-10-01T04:05:48.169Z,55.25
2022-10-01T04:08:23.447Z,55.76
2022-10-01T04:10:54.617Z,55.12
2022-10-01T04:13:24.733Z,55.24
2022-10-01T04:15:54.767Z,55.10
2022-10-01T04:18:24.764Z,55.23
2022-10-01T04:20:55.084Z,55.29
2022-10-01T04:23:26.655Z,55.43
2022-10-01T04:26:00.394Z,55.33
2022-10-01T04:28:31.870Z,55.77
2022-10-01T04:31:20.254Z,55.64
2022-10-01T04:33:51.026Z,55.78
2022-10-01T04:36:21.615Z,55.42
2022-10-01T04:39:00.740Z,55.81
2022-10-01T04:41:33.920Z,55.61
2022-10-01T04:44:04.324Z,56.08
2022-10-01T04:46:34.556Z,56.16
2022-10-01T04:49:04.730Z,56.38
2022-10-01T04:51:35.077Z,55.79
2022-10-01T04:54:05.686Z,56.10
2022-10-01T04:56:36.535Z,56.09
2022-10-01T04:59:06.603Z,56.21
2022-10-01T05:01:37.056Z,56.06
2022-10-01T05:04:07.701Z,55.97
2022-10-01T05:06:38.318Z,56.01
2022-10-01T05:09:08.486Z,55.90
2022-10-01T05:11:40.326Z,55.97
2022-10-01T05:14:10.480Z,55.74
2022-10-01T05:16:40.554Z,55.62
2022-10-01T05:19:11.066Z,55.62
2022-10-01T05:21:41.313Z,55.77
2022-10-01T05:24:11.641Z,55.88
2022-10-01T05:26:41.735Z,55.97
2022-10-01T05:29:12.193Z,55.97
2022-10-01T05:31:46.367Z,55.42
2022-10-01T05:34:15.777Z,55.89
2022-10-01T05:36:45.768Z,55.47
2022-10-01T05:39:16.044Z,55.49
2022-10-01T05:41:46.451Z,54.95
2022-10-01T05:44:16.647Z,55.75
2022-10-01T05:46:46.658Z,54.61
2022-10-01T05:49:17.766Z,54.42
2022-10-01T05:51:48.271Z,54.73
2022-10-01T05:54:20.827Z,54.69
2022-10-01T05:56:52.361Z,54.34
2022-10-01T05:59:22.662Z,53.76
2022-10-01T06:01:54.291Z,54.22
2022-10-01T06:04:25.333Z,53.76
2022-10-01T06:06:58.117Z,53.80
2022-10-01T06:09:28.961Z,53.32
2022-10-01T06:12:00.697Z,53.77
2022-10-01T06:14:31.237Z,53.37
2022-10-01T06:17:01.826Z,53.56
2022-10-01T06:19:32.102Z,53.90
2022-10-01T06:22:02.517Z,54.28
2022-10-01T06:24:33.235Z,54.25
2022-10-01T06:27:03.713Z,54.39
2022-10-01T06:29:33.986Z,54.02
2022-10-01T06:32:04.336Z,53.99
2022-10-01T06:34:34.634Z,53.99
2022-10-01T06:37:05.208Z,53.98
2022-10-01T06:39:36.020Z,54.18
2022-10-01T06:42:07.234Z,53.77
2022-10-01T06:44:38.336Z,54.48
2022-10-01T06:47:08.951Z,54.15
2022-10-01T06:49:40.111Z,54.36
2022-10-01T06:52:30.594Z,54.34
2022-10-01T06:55:02.876Z,54.14
2022-10-01T06:57:35.586Z,54.05
2022-10-01T07:00:06.969Z,53.53
2022-10-01T07:02:37.605Z,53.74
2022-10-01T07:05:10.322Z,53.82
2022-10-01T07:07:41.441Z,53.96
2022-10-01T07:10:14.159Z,53.66
2022-10-01T07:12:44.629Z,54.11
2022-10-01T07:15:15.030Z,54.20
2022-10-01T07:17:47.810Z,53.83
2022-10-01T07:20:21.382Z,54.24
2022-10-01T07:22:57.787Z,54.33
2022-10-01T07:25:30.650Z,54.33
2022-10-01T07:28:06.825Z,54.25
2022-10-01T07:30:37.924Z,54.52
2022-10-01T07:33:08.180Z,54.36
2022-10-01T07:35:39.726Z,54.23
2022-10-01T07:38:09.884Z,54.27
2022-10-01T07:40:40.200Z,54.62
2022-10-01T07:43:11.453Z,54.52
2022-10-01T07:45:42.214Z,54.57
2022-10-01T07:48:12.578Z,54.57
2022-10-01T07:50:44.551Z,54.24
2022-10-01T07:53:16.173Z,54.29
2022-10-01T07:55:46.865Z,54.95
2022-10-01T07:58:16.809Z,54.74
2022-10-01T08:00:46.921Z,54.68
2022-10-01T08:03:18.065Z,54.92
2022-10-01T08:05:50.404Z,54.71
2022-10-01T08:08:21.172Z,54.97
2022-10-01T08:10:51.940Z,55.18
2022-10-01T08:13:26.147Z,55.45
2022-10-01T08:15:56.724Z,56.62
2022-10-01T08:18:26.838Z,56.55
2022-10-01T08:20:57.171Z,57.22
2022-10-01T08:23:28.150Z,57.38
2022-10-01T08:26:03.576Z,56.75
2022-10-01T08:28:34.497Z,57.26
2022-10-01T08:31:09.394Z,57.54
2022-10-01T08:33:40.783Z,58.26
2022-10-01T08:36:11.006Z,58.51
2022-10-01T08:38:42.728Z,59.60
2022-10-01T08:41:51.256Z,57.73
2022-10-01T08:44:29.321Z,59.51
2022-10-01T08:47:13.800Z,58.41
2022-10-01T08:49:52.714Z,58.88
2022-10-01T08:52:33.959Z,58.68
2022-10-01T08:55:12.848Z,59.34
2022-10-01T08:58:01.054Z,59.17
2022-10-01T09:00:34.016Z,59.94
2022-10-01T09:03:09.779Z,59.53
2022-10-01T09:05:52.573Z,61.55
2022-10-01T09:08:53.230Z,58.64
2022-10-01T09:11:32.140Z,58.32
2022-10-01T09:14:32.276Z,58.93
2022-10-01T09:17:24.608Z,60.51
2022-10-01T09:20:24.165Z,59.12
2022-10-01T09:23:18.674Z,59.70
2022-10-01T09:25:52.156Z,60.78
2022-10-01T09:28:26.519Z,61.46
2022-10-01T09:31:02.060Z,60.40
2022-10-01T09:33:35.550Z,60.54
2022-10-01T09:36:13.662Z,59.99
2022-10-01T09:38:58.868Z,59.77
2022-10-01T09:41:35.987Z,61.42
2022-10-01T09:44:10.471Z,61.81
2022-10-01T09:46:51.155Z,62.21
2022-10-01T09:49:35.173Z,60.37
2022-10-01T09:52:30.158Z,59.83
2022-10-01T09:55:20.359Z,59.68
2022-10-01T09:58:02.421Z,60.52
2022-10-01T10:00:33.664Z,61.98
2022-10-01T10:03:03.778Z,62.15
2022-10-01T10:05:45.109Z,60.71
2022-10-01T10:08:16.626Z,62.03
2022-10-01T10:11:04.148Z,60.20
2022-10-01T10:13:42.230Z,60.84
2022-10-01T10:16:27.754Z,60.68
2022-10-01T10:19:12.059Z,60.88
2022-10-01T10:21:53.960Z,60.42
2022-10-01T10:24:27.867Z,61.33
2022-10-01T10:26:59.750Z,61.06
2022-10-01T10:29:36.173Z,60.72
2022-10-01T10:32:26.966Z,60.28
2022-10-01T10:35:03.710Z,61.36
2022-10-01T10:37:39.271Z,60.84
2022-10-01T10:40:11.865Z,59.33
2022-10-01T10:42:52.068Z,60.36
2022-10-01T10:45:32.128Z,60.94
2022-10-01T10:48:06.472Z,61.24
2022-10-01T10:50:42.870Z,60.59
2022-10-01T10:53:26.947Z,60.71
2022-10-01T10:56:08.213Z,60.08
2022-10-01T10:58:43.723Z,61.25
2022-10-01T11:01:30.351Z,59.78
2022-10-01T11:04:03.251Z,60.84
2022-10-01T11:06:33.578Z,61.70
2022-10-01T11:09:10.306Z,61.08
2022-10-01T11:11:58.311Z,60.40
2022-10-01T11:14:43.329Z,59.49
2022-10-01T11:17:32.994Z,60.18
2022-10-01T11:20:41.704Z,59.88
2022-10-01T11:24:07.766Z,59.78
2022-10-01T11:27:08.154Z,60.17
2022-10-01T11:30:19.593Z,61.13
2022-10-01T11:33:13.486Z,60.98
2022-10-01T11:35:50.658Z,61.74
2022-10-01T11:38:41.107Z,61.67
2022-10-01T11:41:36.043Z,60.43
2022-10-01T11:44:37.869Z,60.55
2022-10-01T11:47:27.663Z,60.47
2022-10-01T11:50:07.459Z,61.20
2022-10-01T11:53:02.030Z,60.69
2022-10-01T11:56:13.149Z,60.67
2022-10-01T11:58:53.367Z,62.32
2022-10-01T12:01:29.682Z,61.57
2022-10-01T12:04:15.821Z,62.55
2022-10-01T12:06:56.602Z,60.45
2022-10-01T12:09:38.539Z,61.74
2022-10-01T12:12:26.795Z,61.16
2022-10-01T12:15:19.816Z,61.52
2022-10-01T12:18:01.478Z,61.50
2022-10-01T12:20:49.611Z,61.22
2022-10-01T12:23:29.671Z,62.02
2022-10-01T12:26:30.399Z,61.69
2022-10-01T12:29:30.018Z,61.92
2022-10-01T12:32:06.305Z,61.60
2022-10-01T12:34:39.919Z,62.30
2022-10-01T12:37:34.712Z,61.60
2022-10-01T12:40:30.353Z,61.25
2022-10-01T12:43:22.253Z,62.14
2022-10-01T12:45:58.218Z,62.42
2022-10-01T12:48:56.185Z,61.70
2022-10-01T12:51:54.274Z,61.78
2022-10-01T12:54:45.488Z,61.80
2022-10-01T12:57:24.763Z,62.55
2022-10-01T12:59:54.823Z,64.50
2022-10-01T13:02:24.925Z,64.27
2022-10-01T13:05:21.421Z,61.98
2022-10-01T13:08:20.345Z,63.07
2022-10-01T13:11:09.815Z,64.13
2022-10-01T13:13:41.312Z,64.35
2022-10-01T13:16:40.714Z,62.32
2022-10-01T13:19:47.318Z,62.34
2022-10-01T13:22:33.937Z,62.81
2022-10-01T13:25:10.764Z,63.03
2022-10-01T13:27:49.220Z,63.57
2022-10-01T13:30:32.171Z,63.12
2022-10-01T13:33:03.676Z,64.46
2022-10-01T13:35:40.908Z,63.85
2022-10-01T13:38:19.461Z,63.26
2022-10-01T13:41:01.275Z,62.75
2022-10-01T13:43:36.097Z,63.83
2022-10-01T13:46:14.329Z,63.19
2022-10-01T13:48:51.210Z,62.21
2022-10-01T13:51:22.054Z,63.24
2022-10-01T13:54:03.730Z,62.02
2022-10-01T13:56:38.465Z,62.56
2022-10-01T13:59:35.189Z,61.20
2022-10-01T14:02:25.927Z,62.51
2022-10-01T14:04:57.912Z,62.61
2022-10-01T14:07:37.827Z,61.42
2022-10-01T14:10:13.914Z,62.29
2022-10-01T14:13:06.563Z,61.66
2022-10-01T14:16:04.801Z,60.97
2022-10-01T14:18:44.457Z,61.43
2022-10-01T14:21:38.402Z,60.75
2022-10-01T14:24:25.803Z,60.77
2022-10-01T14:27:11.657Z,62.26
2022-10-01T14:30:02.913Z,61.68
2022-10-01T14:33:00.311Z,61.43
2022-10-01T14:35:43.788Z,61.27
2022-10-01T14:38:22.644Z,61.63
2022-10-01T14:40:55.272Z,62.64
2022-10-01T14:43:34.266Z,61.70
2022-10-01T14:46:08.241Z,62.46
2022-10-01T14:48:40.247Z,62.49
2022-10-01T14:51:33.220Z,61.38
2022-10-01T14:54:04.098Z,62.51
2022-10-01T14:56:36.196Z,62.65
2022-10-01T14:59:08.805Z,62.73
2022-10-01T15:01:39.172Z,63.17
2022-10-01T15:04:17.001Z,61.74
2022-10-01T15:06:47.547Z,62.90
2022-10-01T15:09:21.861Z,62.59
2022-10-01T15:11:54.436Z,62.36
2022-10-01T15:14:27.949Z,62.28
2022-10-01T15:16:58.492Z,63.13
2022-10-01T15:19:29.459Z,62.82
2022-10-01T15:22:04.267Z,62.82
2022-10-01T15:24:51.413Z,61.85
2022-10-01T15:27:24.375Z,62.70
2022-10-01T15:30:00.675Z,63.00
2022-10-01T15:32:30.885Z,63.51
2022-10-01T15:35:04.027Z,63.02
2022-10-01T15:37:37.671Z,63.00
2022-10-01T15:40:22.242Z,63.32
2022-10-01T15:43:12.369Z,61.99
2022-10-01T15:45:43.974Z,63.51
2022-10-01T15:48:35.937Z,61.90
2022-10-01T15:51:30.404Z,61.96
2022-10-01T15:54:10.515Z,62.55
2022-10-01T15:56:43.879Z,63.71
2022-10-01T15:59:21.889Z,62.99
2022-10-01T16:01:51.577Z,61.70
2022-10-01T16:04:23.602Z,63.27
2022-10-01T16:06:55.093Z,63.90
2022-10-01T16:09:30.993Z,63.36
2022-10-01T16:12:08.335Z,63.93
2022-10-01T16:15:01.479Z,62.21
2022-10-01T16:17:41.828Z,63.41
2022-10-01T16:20:18.279Z,63.00
2022-10-01T16:22:48.776Z,64.18
2022-10-01T16:25:26.153Z,63.67
2022-10-01T16:28:06.537Z,63.24
2022-10-01T16:30:37.490Z,64.37
2022-10-01T16:33:08.379Z,64.44
2022-10-01T16:35:42.113Z,64.44
2022-10-01T16:38:12.092Z,64.59
2022-10-01T16:40:49.281Z,63.80
2022-10-01T16:43:25.549Z,64.33
2022-10-01T16:45:56.617Z,64.75
2022-10-01T16:48:27.045Z,64.88
2022-10-01T16:51:00.426Z,64.96
2022-10-01T16:53:30.980Z,64.75
2022-10-01T16:56:01.099Z,64.87
2022-10-01T16:58:30.794Z,64.87
2022-10-01T17:01:00.948Z,65.00
2022-10-01T17:03:31.770Z,64.92
2022-10-01T17:06:01.914Z,64.96
2022-10-01T17:08:32.178Z,65.16
2022-10-01T17:11:03.987Z,64.85
2022-10-01T17:13:35.255Z,64.98
2022-10-01T17:16:06.972Z,65.11
2022-10-01T17:18:37.930Z,65.02
2022-10-01T17:21:08.251Z,64.54
2022-10-01T17:23:38.454Z,63.34
2022-10-01T17:26:11.039Z,59.14
2022-10-01T17:28:41.116Z,57.52
2022-10-01T17:31:15.605Z,58.33
2022-10-01T17:33:48.192Z,58.08
2022-10-01T17:36:18.249Z,57.75
2022-10-01T17:38:48.571Z,58.24
2022-10-01T17:41:18.696Z,58.16
2022-10-01T17:43:48.691Z,57.97
2022-10-01T17:46:19.002Z,58.23
2022-10-01T17:48:52.431Z,58.48
2022-10-01T17:51:22.736Z,58.22
2022-10-01T17:53:52.934Z,58.70
2022-10-01T17:56:22.875Z,58.54
2022-10-01T17:58:56.213Z,58.73
2022-10-01T18:01:26.754Z,59.07
2022-10-01T18:03:57.161Z,59.84
2022-10-01T18:06:27.598Z,59.88
2022-10-01T18:08:57.899Z,59.56
2022-10-01T18:11:30.361Z,59.13
2022-10-01T18:14:02.208Z,59.42
2022-10-01T18:16:33.969Z,59.29
2022-10-01T18:21:56.583Z,59.09
2022-10-01T18:24:27.338Z,59.63
2022-10-01T18:26:58.159Z,59.68
2022-10-01T18:29:29.664Z,60.21
2022-10-01T18:32:28.053Z,59.63
2022-10-01T18:35:03.498Z,59.41
2022-10-01T18:38:01.305Z,59.50
2022-10-01T18:40:36.432Z,60.09
2022-10-01T18:43:19.345Z,60.47
2022-10-01T18:46:15.737Z,60.15
2022-10-01T18:48:57.210Z,59.74
2022-10-01T18:51:53.670Z,59.62
2022-10-01T18:54:52.388Z,59.89
2022-10-01T18:57:28.359Z,60.31
2022-10-01T19:00:13.366Z,60.55
2022-10-01T19:03:01.783Z,61.43
2022-10-01T19:05:53.044Z,60.59
2022-10-01T19:09:02.181Z,61.07
2022-10-01T19:11:47.561Z,61.53
2022-10-01T19:14:26.415Z,61.80
2022-10-01T19:17:20.552Z,61.12
2022-10-01T19:20:23.782Z,61.73
2022-10-01T19:23:25.155Z,61.62
2022-10-01T19:26:03.032Z,62.27
2022-10-01T19:29:10.877Z,62.47
2022-10-01T19:32:02.510Z,62.76
2022-10-01T19:34:46.393Z,62.54
2022-10-01T19:37:40.095Z,62.68
2022-10-01T19:40:24.743Z,62.82
2022-10-01T19:43:18.072Z,62.37
2022-10-01T19:46:17.237Z,63.60
2022-10-01T19:48:56.054Z,64.07
2022-10-01T19:51:35.524Z,63.96
2022-10-01T19:54:13.656Z,64.51
2022-10-01T19:56:44.812Z,64.61
2022-10-01T19:59:20.980Z,63.84
2022-10-01T20:02:03.528Z,63.61
2022-10-01T20:04:36.685Z,64.73
2022-10-01T20:07:40.232Z,63.11
2022-10-01T20:10:19.795Z,65.08
2022-10-01T20:13:03.683Z,64.47
2022-10-01T20:15:36.039Z,64.95
2022-10-01T20:18:38.136Z,63.46
2022-10-01T20:21:16.407Z,63.08
2022-10-01T20:24:00.445Z,63.59
2022-10-01T20:26:52.281Z,63.36
2022-10-01T20:29:30.891Z,63.56
2022-10-01T20:32:14.867Z,63.95
2022-10-01T20:34:44.817Z,64.97
2022-10-01T20:37:24.040Z,64.61
2022-10-01T20:40:03.365Z,64.47
2022-10-01T20:42:48.190Z,64.06
2022-10-01T20:45:27.765Z,64.07
2022-10-01T20:48:12.215Z,63.89
2022-10-01T20:50:49.166Z,64.58
2022-10-01T20:53:52.546Z,63.58
2022-10-01T20:56:32.721Z,64.25
2022-10-01T20:59:25.499Z,63.89
2022-10-01T21:02:06.337Z,64.08
2022-10-01T21:04:42.896Z,66.30
2022-10-01T21:07:19.149Z,67.13
2022-10-01T21:09:53.654Z,66.76
2022-10-01T21:12:31.501Z,64.27
2022-10-01T21:15:03.846Z,65.07
2022-10-01T21:17:54.778Z,65.80
2022-10-01T21:20:24.810Z,65.69
2022-10-01T21:23:48.259Z,64.53
2022-10-01T21:26:25.590Z,65.13
2022-10-01T21:29:25.528Z,64.36
2022-10-01T21:32:07.505Z,64.71
2022-10-01T21:34:43.698Z,65.31
2022-10-01T21:37:27.615Z,64.98
2022-10-01T21:40:05.438Z,65.71
2022-10-01T21:43:07.807Z,64.33
2022-10-01T21:46:08.780Z,64.60
2022-10-01T21:48:54.427Z,66.12
2022-10-01T21:51:56.387Z,64.23
2022-10-01T21:54:46.763Z,65.78
2022-10-01T21:57:53.036Z,64.68
2022-10-01T22:00:29.820Z,65.90
2022-10-01T22:03:29.971Z,65.35
2022-10-01T22:06:19.172Z,65.25
2022-10-01T22:09:20.641Z,64.73
2022-10-01T22:11:56.045Z,66.35
2022-10-01T22:14:28.134Z,66.65
2022-10-01T22:17:02.215Z,66.82
2022-10-01T22:19:39.134Z,66.14
2022-10-01T22:22:16.961Z,66.03
2022-10-01T22:24:50.513Z,66.66
2022-10-01T22:27:38.592Z,66.75
2022-10-01T22:30:13.538Z,65.93
2022-10-01T22:32:50.390Z,66.33
2022-10-01T22:35:45.713Z,66.27
2022-10-01T22:38:34.218Z,67.06
2022-10-01T22:41:36.382Z,65.23
2022-10-01T22:44:25.667Z,65.42
2022-10-01T22:46:58.040Z,67.90
2022-10-01T22:49:49.257Z,65.95
2022-10-01T22:52:33.085Z,67.18
2022-10-01T22:55:27.499Z,66.35
2022-10-01T22:58:07.528Z,67.40
2022-10-01T23:00:46.482Z,66.93
2022-10-01T23:03:39.970Z,67.43
2022-10-01T23:06:15.968Z,67.83
2022-10-01T23:08:58.227Z,66.84
2022-10-01T23:11:43.327Z,65.92
2022-10-01T23:14:19.524Z,67.51
2022-10-01T23:17:05.933Z,66.06
2022-10-01T23:19:47.389Z,66.43
2022-10-01T23:22:55.474Z,66.21
2022-10-01T23:26:02.669Z,66.51
2022-10-01T23:28:54.012Z,66.31
2022-10-01T23:31:35.972Z,67.58
2022-10-01T23:34:12.492Z,66.67
2022-10-01T23:36:46.111Z,67.21
2022-10-01T23:39:25.491Z,67.45
2022-10-01T23:41:59.259Z,67.74
2022-10-01T23:44:52.250Z,66.39
2022-10-01T23:47:35.302Z,67.53
2022-10-01T23:50:10.095Z,67.00
2022-10-01T23:52:47.144Z,67.50
2022-10-01T23:55:42.090Z,67.81
2022-10-01T23:58:16.479Z,68.75
